Sprint 2 - Blue
Course: Road America · 2026-09-06 10:45AM
Weather Conditions
Temp 71°F
(62–72°F range)
Temp type NORMAL
Track DRY
Precip 0.0 mm (NONE)
Humidity 74%
Wind 8 km/h
Cloud 10%
| CLASS | POS | PPTS | BPTS | # | NAME | LAPS | GAP | INTERVAL | BEST LAP |
|---|---|---|---|---|---|---|---|---|---|
| GTD3 | 1 | 10 | 5 | 194 | KEVIN CYR | 14 | Lap 14 | Lap 14 | 2:15.600 |
| 2 | 7 | 5 | 751 | CHRIS DOOLEY | 14 | 0.255 | 0.255 | 2:16.123 | |
| 3 | 5 | 5 | 581 | MARK COOK | 14 | 30.932 | 30.677 | 2:17.193 | |
| 4 | 4 | 5 | 171 | LARRY WEXLER | 14 | 56.145 | 25.213 | 2:19.168 | |
| 5 | 3 | 5 | 888 | JEFF BRETON | 14 | 59.538 | 3.393 | 2:16.301 | |
| 6 | 2 | 5 | 111 | NICOLAS GIGUERE | 14 | 1:14.693 | 15.155 | 2:15.390 | |
| 7 | 1 | 4 | 22 | JOHN EDDLEMON | 14 | 1:20.188 | 5.495 | 2:18.682 | |
| 8 | 0 | 3 | 747 | BRAD WEBER | 14 | 1:26.073 | 5.885 | 2:20.114 | |
| 9 | 0 | 2 | 819 | ROBERT GEE | 12 | Lap 12 | Lap 12 | 2:15.961 | |
| DNF | 0 | 90 | NICOLE ROBICHAUD | 4 | - | - | 2:18.027 | ||
| DNF | 0 | 158 | SCOTT GILL | 4 | - | - | 2:18.025 | ||
| GTD2 | 1 | 10 | 4 | 109 | RYAN SZYJAKOWSKI | 14 | Lap 14 | Lap 14 | 2:19.982 |
| 2 | 7 | 3 | 62 | COLIN HAUER | 14 | 28.918 | 28.918 | 2:21.491 | |
| 3 | 5 | 2 | 14 | ARTHUR SOLTYS | 14 | 34.245 | 5.327 | 2:21.993 | |
| 4 | 4 | 1 | 60 | DAVID WELLS | 14 | 35.688 | 1.443 | 2:23.207 | |
| 5 | 3 | 221 | PIERRE PAQUET | 14 | 58.162 | 22.474 | 2:23.918 | ||
| GTB1 | 1 | 10 | 5 | 9 | ANGUS ROGERS | 14 | Lap 14 | Lap 14 | 2:22.825 |
| 2 | 7 | 5 | 98 | ED DUNNE | 14 | 13.132 | 13.132 | 2:24.080 | |
| 3 | 5 | 5 | 696 | MIKE ORIGER | 14 | 28.694 | 15.562 | 2:24.258 | |
| 4 | 4 | 4 | 726 | RUSSEL MARTORANA | 14 | 39.018 | 10.324 | 2:25.884 | |
| 5 | 3 | 3 | 951 | ANDREW BURKE | 14 | 39.888 | 0.870 | 2:26.030 | |
| 6 | 2 | 2 | 498 | COLLIN SCHMITZ | 13 | Lap 13 | Lap 13 | 2:28.357 | |
| 7 | 1 | 1 | 444 | TONY CLINTON | 13 | 15.144 | 15.144 | 2:29.107 | |
| 8 | 0 | 4 | SAM MAMMANO | 13 | 42.320 | 27.176 | 2:30.323 | ||
| GT3 | 1 | 10 | 4 | 199 | BOB VAN ZANT | 14 | Lap 14 | Lap 14 | 2:23.358 |
| 2 | 7 | 3 | 079 | CHARLES LEW | 14 | 10.441 | 10.441 | 2:23.886 | |
| 3 | 5 | 2 | 689 | ROBERT BAKER | 14 | 11.882 | 1.441 | 2:23.541 | |
| 4 | 4 | 1 | 127 | STEVE GARRISON | 13 | Lap 13 | Lap 13 | 2:29.860 | |
| 5 | 3 | 447 | JON DUNSKI | 13 | 4.606 | 4.606 | 2:29.853 | ||
| GTD1 | 1 | 10 | 144 | JEFF ROBINS | 14 | Lap 14 | Lap 14 | 2:24.513 | |
| GT4 | 1 | 10 | 1 | 66 | CLAUDIO KAEMPF | 14 | Lap 14 | Lap 14 | 2:23.546 |
| 2 | 7 | 5 | PATRICK PERONNET | 12 | Lap 12 | Lap 12 | 2:39.679 | ||
| GTB3 | 1 | 10 | 224 | KIERON O'ROURKE | 14 | Lap 14 | Lap 14 | 2:24.910 | |
| SP996 | 1 | 10 | 517 | ALEX WILLIAMS | 13 | Lap 13 | Lap 13 | 2:26.954 | |
| SPC | 1 | 10 | 5 | 93 | MATT DISTEFANO | 13 | Lap 13 | Lap 13 | 2:28.453 |
| 2 | 7 | 5 | 147 | WALEED CHEHADI | 13 | 9.574 | 9.574 | 2:28.240 | |
| 3 | 5 | 5 | 556 | DOMINICK BELVEDERE | 13 | 19.878 | 10.304 | 2:29.995 | |
| 4 | 4 | 5 | 39 | TIM LAMBIE | 13 | 39.228 | 19.350 | 2:30.520 | |
| 5 | 3 | 4 | 122 | MICHAEL VENABLE | 13 | 55.371 | 16.143 | 2:32.020 | |
| 6 | 2 | 3 | 42 | PERRY LOWERY | 13 | 1:02.756 | 7.385 | 2:33.305 | |
| 7 | 1 | 2 | 719 | TRES DRAWHORN | 13 | 1:18.696 | 15.940 | 2:34.402 | |
| DNF | 0 | 19 | JASON KNUPP | 10 | - | - | 2:34.248 | ||
| DNF | 0 | 97 | IAN ROGENSKI | 6 | - | - | 2:33.443 | ||
| SP997 | 1 | 10 | 131 | WESTON JEZEK | 13 | Lap 13 | Lap 13 | 2:26.744 | |
Pole Position